Time;durP1;ratioP1;P1;durP2;ratioP2;P2;SDS_P1;SDS_P2;PMS_P1;PMS_P2;Temp;Humidity;BMP_temperature;BMP_pressure;BME280_temperature;BME280_humidity;BME280_pressure;Samples;Min_cycle;Max_cycle;Signal;HPM_P1;HPM_P2
2023/08/28 00:00:50;;;;;;;10.57;7.10;;;;;;;14.37;100.00;101067.34;5024781;28;20809;-72
2023/08/28 00:03:16;;;;;;;9.57;7.55;;;;;;;14.38;100.00;101058.34;5021695;28;20384;-72
2023/08/28 00:05:41;;;;;;;11.10;7.57;;;;;;;14.33;100.00;101061.38;5024718;28;20111;-73
2023/08/28 00:08:07;;;;;;;10.73;7.68;;;;;;;14.31;100.00;101065.13;5028015;28;20044;-73
2023/08/28 00:10:33;;;;;;;12.05;8.43;;;;;;;14.34;100.00;101064.91;5024806;28;20049;-73
2023/08/28 00:12:59;;;;;;;15.77;8.95;;;;;;;14.27;100.00;101056.47;5025271;28;21050;-73
2023/08/28 00:15:24;;;;;;;14.05;9.10;;;;;;;14.24;100.00;101068.28;5029073;28;20766;-73
2023/08/28 00:17:50;;;;;;;11.73;8.02;;;;;;;14.28;100.00;101062.69;5022690;28;20787;-73
2023/08/28 00:20:16;;;;;;;11.63;8.20;;;;;;;14.17;100.00;101068.84;5033260;28;20037;-72
2023/08/28 00:22:42;;;;;;;9.35;7.55;;;;;;;14.25;100.00;101069.13;5025288;28;20037;-72
2023/08/28 00:25:08;;;;;;;12.10;8.95;;;;;;;14.21;100.00;101071.19;5023085;28;20411;-72
2023/08/28 00:27:34;;;;;;;15.05;7.72;;;;;;;14.15;100.00;101074.31;5029688;28;20068;-72
2023/08/28 00:30:00;;;;;;;15.48;7.38;;;;;;;14.15;100.00;101077.00;5029219;28;20030;-72
2023/08/28 00:32:26;;;;;;;11.68;8.50;;;;;;;14.16;100.00;101080.56;5020890;28;20049;-72
2023/08/28 00:34:52;;;;;;;15.93;8.02;;;;;;;14.11;100.00;101090.78;5023698;28;20192;-72
2023/08/28 00:37:17;;;;;;;13.38;8.18;;;;;;;14.12;100.00;101098.69;5025981;28;20081;-72
2023/08/28 00:39:43;;;;;;;12.63;8.18;;;;;;;14.02;100.00;101091.44;5011388;28;20030;-73
2023/08/28 00:42:09;;;;;;;14.05;8.75;;;;;;;14.14;100.00;101098.56;5028342;28;20046;-73
2023/08/28 00:44:34;;;;;;;19.02;8.77;;;;;;;14.16;100.00;101097.50;5042325;28;20061;-73
2023/08/28 00:47:01;;;;;;;13.40;7.95;;;;;;;14.17;100.00;101098.38;5024477;28;20115;-72
2023/08/28 00:49:27;;;;;;;8.35;7.22;;;;;;;14.19;100.00;101099.09;5028332;28;20037;-72
2023/08/28 00:51:52;;;;;;;12.75;8.00;;;;;;;14.10;100.00;101092.56;5024067;28;20030;-72
2023/08/28 00:54:19;;;;;;;8.68;7.50;;;;;;;14.17;100.00;101091.16;5022035;28;20073;-72
2023/08/28 00:56:47;;;;;;;11.93;7.70;;;;;;;14.16;100.00;101097.50;5037254;28;20036;-72
2023/08/28 00:59:15;;;;;;;12.02;8.50;;;;;;;14.05;100.00;101086.69;5055460;28;20037;-72
2023/08/28 01:01:41;;;;;;;14.13;8.15;;;;;;;14.12;100.00;101082.63;5025854;28;20037;-72
2023/08/28 01:04:07;;;;;;;15.32;8.55;;;;;;;14.08;100.00;101086.47;5027458;28;21042;-72
2023/08/28 01:06:45;;;;;;;19.50;8.73;;;;;;;14.05;100.00;101078.66;5028549;28;20026;-72
2023/08/28 01:09:38;;;;;;;13.48;7.25;;;;;;;13.98;100.00;101074.72;5031124;28;20119;-72
2023/08/28 01:12:34;;;;;;;12.88;7.85;;;;;;;13.86;100.00;101084.53;5029977;28;20042;-72
2023/08/28 01:15:15;;;;;;;15.32;8.70;;;;;;;13.87;100.00;101080.03;5029864;28;20037;-72
2023/08/28 01:17:43;;;;;;;15.57;8.35;;;;;;;13.87;100.00;101080.88;5042185;28;20093;-72
2023/08/28 01:20:15;;;;;;;12.77;8.32;;;;;;;13.85;100.00;101079.28;5017630;28;20034;-73
2023/08/28 01:22:55;;;;;;;15.50;8.40;;;;;;;13.80;100.00;101079.59;5031099;28;20026;-72
2023/08/28 01:25:22;;;;;;;16.00;9.18;;;;;;;13.82;100.00;101075.00;5052482;28;20065;-72
2023/08/28 01:27:48;;;;;;;17.80;9.57;;;;;;;13.73;100.00;101075.66;5029717;28;20140;-73
2023/08/28 01:30:15;;;;;;;12.95;9.07;;;;;;;13.70;100.00;101078.56;5022063;28;20610;-72
2023/08/28 01:32:44;;;;;;;18.98;10.82;;;;;;;13.67;100.00;101082.34;5035285;28;20034;-72
2023/08/28 01:35:15;;;;;;;16.08;10.18;;;;;;;13.81;100.00;101081.34;5043156;28;20045;-72
2023/08/28 01:37:50;;;;;;;11.82;9.40;;;;;;;13.80;100.00;101071.56;5041870;28;20029;-72
2023/08/28 01:40:20;;;;;;;17.20;10.32;;;;;;;13.74;100.00;101072.00;5037304;28;20041;-72
2023/08/28 01:42:46;;;;;;;18.27;9.05;;;;;;;13.78;100.00;101076.19;5076381;28;20033;-72
2023/08/28 01:45:14;;;;;;;15.60;8.95;;;;;;;13.80;100.00;101076.91;5044474;28;20593;-72
2023/08/28 01:47:40;;;;;;;15.50;9.63;;;;;;;13.55;100.00;101091.25;5045403;28;20041;-72
2023/08/28 01:50:06;;;;;;;13.50;8.93;;;;;;;13.65;100.00;101086.94;5059717;28;20080;-72
2023/08/28 01:52:31;;;;;;;13.20;10.02;;;;;;;13.68;100.00;101078.69;5047420;28;20711;-72
2023/08/28 01:54:57;;;;;;;10.98;8.02;;;;;;;13.70;100.00;101071.41;5039655;28;20072;-72
2023/08/28 01:57:22;;;;;;;16.45;9.43;;;;;;;13.65;100.00;101075.34;5036620;28;20191;-73
2023/08/28 01:59:48;;;;;;;14.18;9.65;;;;;;;13.63;100.00;101075.47;5039871;28;20438;-72
2023/08/28 02:02:14;;;;;;;14.18;9.55;;;;;;;13.63;100.00;101074.63;5034640;28;20796;-72
2023/08/28 02:04:40;;;;;;;13.68;8.88;;;;;;;13.62;100.00;101079.13;5034224;28;20431;-72
2023/08/28 02:07:05;;;;;;;13.40;9.48;;;;;;;13.41;100.00;101078.00;5033514;28;20026;-72
2023/08/28 02:09:32;;;;;;;13.88;10.13;;;;;;;13.40;100.00;101076.28;5032736;28;20034;-72
2023/08/28 02:11:58;;;;;;;15.13;11.20;;;;;;;13.43;100.00;101078.75;5027119;28;20052;-72
2023/08/28 02:14:23;;;;;;;15.38;10.10;;;;;;;13.46;100.00;101065.13;5029214;28;20084;-72
2023/08/28 02:16:49;;;;;;;18.25;11.07;;;;;;;13.33;100.00;101062.47;5023427;28;20850;-72
2023/08/28 02:19:14;;;;;;;12.55;10.07;;;;;;;13.34;100.00;101066.84;5043376;28;20503;-72
2023/08/28 02:21:40;;;;;;;17.73;10.13;;;;;;;13.31;100.00;101059.06;5031462;28;20033;-72
2023/08/28 02:24:06;;;;;;;13.05;10.13;;;;;;;13.25;100.00;101055.94;5029994;28;20033;-72
2023/08/28 02:26:32;;;;;;;12.27;9.13;;;;;;;13.21;100.00;101049.94;5067504;28;20045;-72
2023/08/28 02:28:57;;;;;;;17.08;8.38;;;;;;;13.17;100.00;101049.28;5034111;28;20036;-72
2023/08/28 02:31:23;;;;;;;15.00;9.88;;;;;;;13.08;100.00;101052.59;5031647;28;20760;-73
2023/08/28 02:33:48;;;;;;;13.23;10.85;;;;;;;13.01;100.00;101061.19;5026905;28;20038;-72
2023/08/28 02:36:15;;;;;;;16.48;10.35;;;;;;;13.12;100.00;101058.63;5027539;28;20046;-72
2023/08/28 02:38:41;;;;;;;16.92;11.18;;;;;;;13.08;100.00;101054.44;5064768;28;20072;-73
2023/08/28 02:41:07;;;;;;;16.33;11.20;;;;;;;13.08;100.00;101057.97;5034364;28;20099;-72
2023/08/28 02:43:33;;;;;;;19.95;12.30;;;;;;;13.09;100.00;101058.81;5066136;28;20080;-72
2023/08/28 02:46:00;;;;;;;15.77;10.40;;;;;;;12.96;100.00;101057.00;5031418;28;20115;-72
2023/08/28 02:48:27;;;;;;;15.57;10.18;;;;;;;12.97;100.00;101044.47;5030574;28;20068;-72
2023/08/28 02:50:53;;;;;;;15.27;9.73;;;;;;;12.95;100.00;101043.72;5029917;28;20029;-73
2023/08/28 02:53:18;;;;;;;17.73;9.80;;;;;;;12.95;100.00;101033.00;5036981;28;20044;-73
2023/08/28 02:56:24;;;;;;;12.90;10.25;;;;;;;12.93;100.00;101022.41;5027551;28;20029;-72
2023/08/28 02:58:50;;;;;;;11.77;9.50;;;;;;;12.92;100.00;101030.56;5030990;28;20038;-72
2023/08/28 03:01:17;;;;;;;21.27;10.25;;;;;;;12.90;100.00;101045.84;5030393;28;20061;-73
2023/08/28 03:03:43;;;;;;;12.57;10.07;;;;;;;12.86;100.00;101047.91;5045459;28;21071;-72
2023/08/28 03:06:09;;;;;;;17.23;12.60;;;;;;;12.81;100.00;101055.41;5031436;28;20037;-72
2023/08/28 03:08:34;;;;;;;14.43;11.13;;;;;;;12.81;100.00;101059.91;5062017;28;20041;-72
2023/08/28 03:11:00;;;;;;;21.58;13.52;;;;;;;12.81;100.00;101078.63;5051706;28;20048;-72
2023/08/28 03:13:26;;;;;;;17.20;12.65;;;;;;;12.80;100.00;101087.59;5030142;28;20046;-72
2023/08/28 03:15:52;;;;;;;17.67;13.40;;;;;;;12.74;100.00;101088.03;5028238;28;20040;-72
2023/08/28 03:18:18;;;;;;;19.25;15.23;;;;;;;12.80;100.00;101084.94;5031297;28;20092;-72
2023/08/28 03:20:44;;;;;;;26.83;18.35;;;;;;;12.80;100.00;101084.94;5030989;28;20030;-72
2023/08/28 03:23:09;;;;;;;22.73;16.17;;;;;;;12.87;100.00;101091.59;5031736;28;20030;-72
2023/08/28 03:25:38;;;;;;;20.77;15.07;;;;;;;12.79;100.00;101086.75;5028262;28;20051;-72
2023/08/28 03:28:07;;;;;;;26.63;16.08;;;;;;;12.80;100.00;101098.31;5048257;28;20034;-72
2023/08/28 03:30:36;;;;;;;23.63;16.73;;;;;;;12.77;100.00;101096.72;5034081;28;20185;-72
2023/08/28 03:33:01;;;;;;;23.55;16.52;;;;;;;12.77;100.00;101102.06;5066440;28;20061;-74
2023/08/28 03:35:27;;;;;;;20.08;15.18;;;;;;;12.76;100.00;101105.72;5031433;28;20931;-72
2023/08/28 03:37:52;;;;;;;23.13;18.15;;;;;;;12.76;100.00;101092.34;5048238;28;20749;-72
2023/08/28 03:40:18;;;;;;;21.73;15.50;;;;;;;12.81;100.00;101090.19;5027908;28;20049;-72
2023/08/28 03:42:44;;;;;;;24.00;17.58;;;;;;;12.85;100.00;101091.69;5067357;28;20330;-72
2023/08/28 03:45:09;;;;;;;25.42;16.63;;;;;;;12.80;100.00;101088.50;5035289;28;20065;-72
2023/08/28 03:47:35;;;;;;;21.60;16.77;;;;;;;12.77;100.00;101093.19;5030965;28;20111;-72
2023/08/28 03:50:01;;;;;;;30.50;17.13;;;;;;;12.65;100.00;101105.56;5033132;28;20040;-72
2023/08/28 03:52:26;;;;;;;24.38;17.58;;;;;;;12.76;100.00;101102.19;5049959;28;20463;-72
2023/08/28 03:54:52;;;;;;;29.52;18.88;;;;;;;12.65;100.00;101103.78;5065129;28;20048;-72
2023/08/28 03:57:18;;;;;;;22.55;17.45;;;;;;;12.68;100.00;101105.38;5028957;28;20045;-72
2023/08/28 03:59:44;;;;;;;24.50;20.20;;;;;;;12.63;100.00;101107.50;5058046;28;20237;-72
2023/08/28 04:02:09;;;;;;;26.42;19.15;;;;;;;12.64;100.00;101110.06;5031829;28;20507;-72
2023/08/28 04:04:35;;;;;;;29.58;19.38;;;;;;;12.62;100.00;101108.47;5038393;28;20033;-72
2023/08/28 04:07:03;;;;;;;23.05;17.60;;;;;;;12.56;100.00;101122.25;5029044;28;20581;-72
2023/08/28 04:09:30;;;;;;;24.45;17.77;;;;;;;12.55;100.00;101118.72;5041373;28;20060;-71
2023/08/28 04:11:56;;;;;;;26.05;19.92;;;;;;;12.51;100.00;101135.94;5023366;28;20045;-72
2023/08/28 04:14:22;;;;;;;28.85;19.17;;;;;;;12.60;100.00;101137.13;5010669;28;20069;-72
2023/08/28 04:16:53;;;;;;;26.25;18.85;;;;;;;12.63;100.00;101132.44;5041700;28;20057;-72
2023/08/28 04:19:19;;;;;;;28.52;20.63;;;;;;;12.61;100.00;101126.34;5008554;28;20045;-72
2023/08/28 04:21:44;;;;;;;24.75;19.10;;;;;;;12.63;100.00;101128.91;5025809;28;20045;-72
2023/08/28 04:24:10;;;;;;;28.23;22.40;;;;;;;12.61;100.00;101138.84;5027587;28;20029;-72
2023/08/28 04:26:35;;;;;;;27.17;22.10;;;;;;;12.65;100.00;101145.69;5029037;28;20042;-72
2023/08/28 04:29:01;;;;;;;31.42;22.15;;;;;;;12.70;100.00;101141.78;5038787;28;20038;-72
2023/08/28 04:31:26;;;;;;;32.83;22.73;;;;;;;12.79;100.00;101140.28;5029247;28;20111;-72
2023/08/28 04:33:52;;;;;;;32.17;24.17;;;;;;;12.93;100.00;101142.00;5060385;28;20072;-72
2023/08/28 04:36:18;;;;;;;30.02;24.45;;;;;;;12.96;100.00;101145.34;5023096;28;20484;-72
2023/08/28 04:38:44;;;;;;;35.67;26.00;;;;;;;13.07;100.00;101139.25;5041211;28;20388;-72
2023/08/28 04:41:09;;;;;;;31.70;26.10;;;;;;;13.07;100.00;101136.56;5044827;28;21064;-72
2023/08/28 04:43:35;;;;;;;40.55;25.95;;;;;;;13.18;100.00;101133.16;5027810;28;20034;-72
2023/08/28 04:46:01;;;;;;;34.38;27.48;;;;;;;13.26;100.00;101141.56;5029074;28;20539;-72
2023/08/28 04:48:26;;;;;;;44.72;30.55;;;;;;;13.33;100.00;101132.09;5043238;28;20033;-73
2023/08/28 04:50:52;;;;;;;35.63;25.80;;;;;;;13.43;100.00;101124.28;5028383;28;20535;-72
2023/08/28 04:53:17;;;;;;;36.15;27.80;;;;;;;13.56;100.00;101122.47;5024285;28;20912;-72
2023/08/28 04:55:43;;;;;;;35.70;27.63;;;;;;;13.67;100.00;101124.38;5054744;28;20057;-72
2023/08/28 04:58:08;;;;;;;33.65;27.38;;;;;;;13.72;100.00;101125.75;5028930;28;20037;-73
2023/08/28 05:00:34;;;;;;;43.47;29.52;;;;;;;13.81;100.00;101118.00;5043130;28;20038;-72
2023/08/28 05:03:00;;;;;;;39.97;29.42;;;;;;;13.84;100.00;101117.78;5023999;28;20038;-72
2023/08/28 05:05:25;;;;;;;36.53;27.63;;;;;;;13.89;100.00;101119.16;5027775;28;20666;-73
2023/08/28 05:07:51;;;;;;;39.25;28.70;;;;;;;13.89;100.00;101120.97;5057288;28;20033;-72
2023/08/28 05:10:16;;;;;;;51.90;31.45;;;;;;;13.88;100.00;101113.91;5058599;28;20033;-73
2023/08/28 05:12:43;;;;;;;40.80;31.40;;;;;;;13.91;100.00;101117.22;5042169;28;20041;-72
2023/08/28 05:15:09;;;;;;;46.03;31.80;;;;;;;13.93;100.00;101111.75;5040966;28;20750;-73
2023/08/28 05:17:34;;;;;;;40.50;31.65;;;;;;;13.97;100.00;101115.91;5024345;28;20109;-72
2023/08/28 05:20:00;;;;;;;46.53;33.20;;;;;;;14.01;100.00;101117.41;5026649;28;20038;-72
2023/08/28 05:22:26;;;;;;;52.90;36.33;;;;;;;14.00;100.00;101111.16;5026927;28;20033;-72
2023/08/28 05:24:51;;;;;;;38.13;29.88;;;;;;;14.01;100.00;101114.72;5036263;28;20518;-72
2023/08/28 05:27:17;;;;;;;44.25;32.58;;;;;;;13.99;100.00;101114.81;5027683;28;20036;-72
2023/08/28 05:29:44;;;;;;;45.45;33.03;;;;;;;14.01;100.00;101114.72;5023817;28;20174;-72
2023/08/28 05:32:11;;;;;;;56.22;39.03;;;;;;;14.02;100.00;101115.59;5061269;28;20033;-72
2023/08/28 05:34:36;;;;;;;54.10;41.03;;;;;;;13.99;100.00;101122.88;5060004;28;20795;-72
2023/08/28 05:37:03;;;;;;;47.70;35.47;;;;;;;14.08;100.00;101120.50;5027404;28;20129;-73
2023/08/28 05:39:28;;;;;;;47.13;35.97;;;;;;;14.14;100.00;101118.19;5022251;28;20094;-72
2023/08/28 05:41:54;;;;;;;42.17;33.25;;;;;;;14.21;100.00;101114.13;5057693;28;20030;-73
2023/08/28 05:44:19;;;;;;;44.92;36.47;;;;;;;14.27;100.00;101120.84;5024165;28;20790;-72
2023/08/28 05:46:46;;;;;;;52.22;40.28;;;;;;;14.27;100.00;101120.00;5026078;28;20038;-73
2023/08/28 05:49:12;;;;;;;49.17;39.15;;;;;;;14.32;100.00;101126.72;5024022;28;20543;-72
2023/08/28 05:51:38;;;;;;;46.50;35.38;;;;;;;14.35;100.00;101122.94;5027816;28;20041;-72
2023/08/28 05:54:04;;;;;;;46.28;35.25;;;;;;;14.40;100.00;101118.94;5029097;28;20045;-73
2023/08/28 05:56:29;;;;;;;46.42;37.10;;;;;;;14.57;100.00;101125.78;5033300;28;20044;-72
2023/08/28 05:58:56;;;;;;;50.75;37.20;;;;;;;14.73;100.00;101122.78;5029798;28;20044;-72
2023/08/28 06:01:21;;;;;;;44.90;36.30;;;;;;;14.91;100.00;101117.81;5033955;28;20379;-72
2023/08/28 06:03:47;;;;;;;48.13;36.53;;;;;;;14.94;100.00;101117.59;5027787;28;20985;-72
2023/08/28 06:06:12;;;;;;;56.40;37.08;;;;;;;14.95;100.00;101119.28;5029519;28;20847;-73
2023/08/28 06:08:38;;;;;;;49.78;39.05;;;;;;;15.01;100.00;101118.84;5025907;28;20065;-72
2023/08/28 06:11:06;;;;;;;49.95;37.47;;;;;;;15.22;100.00;101114.47;5028065;28;20176;-72
2023/08/28 06:13:31;;;;;;;49.50;37.78;;;;;;;15.28;100.00;101113.13;5034963;28;20041;-73
2023/08/28 06:15:57;;;;;;;46.25;34.97;;;;;;;15.36;100.00;101113.38;5028384;28;20218;-72
2023/08/28 06:18:22;;;;;;;44.75;33.22;;;;;;;15.48;100.00;101108.84;5037566;28;20029;-73
2023/08/28 06:20:48;;;;;;;37.97;31.00;;;;;;;15.45;100.00;101111.78;5066854;28;20107;-72
2023/08/28 06:23:16;;;;;;;42.28;34.75;;;;;;;15.62;100.00;101107.75;5038392;28;20934;-72
2023/08/28 06:25:42;;;;;;;35.03;27.15;;;;;;;15.82;100.00;101096.28;5042968;28;20037;-72
2023/08/28 06:28:07;;;;;;;45.15;32.72;;;;;;;15.88;100.00;101100.31;5038238;28;20737;-72
2023/08/28 06:30:33;;;;;;;40.50;29.50;;;;;;;15.99;100.00;101100.28;5023564;28;20026;-72
2023/08/28 06:33:00;;;;;;;35.45;28.98;;;;;;;16.14;100.00;101100.84;5051808;28;20041;-73
2023/08/28 06:35:25;;;;;;;40.78;29.05;;;;;;;16.23;100.00;101100.94;5035016;28;20075;-72
2023/08/28 06:37:51;;;;;;;34.05;27.15;;;;;;;16.28;100.00;101114.03;5034986;28;20506;-73
2023/08/28 06:40:16;;;;;;;30.02;24.80;;;;;;;16.57;100.00;101096.28;5028683;28;20114;-72
2023/08/28 06:42:42;;;;;;;32.60;25.48;;;;;;;16.69;100.00;101099.75;5028877;28;20152;-72
2023/08/28 06:45:08;;;;;;;33.13;25.27;;;;;;;16.77;100.00;101108.09;5025722;28;20033;-72
2023/08/28 06:47:34;;;;;;;31.73;24.48;;;;;;;16.75;100.00;101110.03;5019425;28;20038;-72
2023/08/28 06:50:00;;;;;;;32.30;25.50;;;;;;;16.79;100.00;101105.25;5027305;28;20140;-72
2023/08/28 06:52:25;;;;;;;32.45;24.05;;;;;;;16.87;100.00;101107.28;5028432;28;20069;-72
2023/08/28 06:54:51;;;;;;;31.95;23.27;;;;;;;16.82;100.00;101108.56;5024373;28;20049;-72
2023/08/28 06:57:17;;;;;;;28.15;21.88;;;;;;;16.84;100.00;101097.63;5021899;28;20570;-73
2023/08/28 06:59:42;;;;;;;25.15;21.08;;;;;;;16.74;100.00;101111.03;5029816;28;20069;-72
2023/08/28 07:02:08;;;;;;;25.70;20.98;;;;;;;16.63;100.00;101118.28;5023148;28;20037;-72
2023/08/28 07:04:34;;;;;;;31.13;21.70;;;;;;;16.51;100.00;101120.16;5014635;28;20088;-72
2023/08/28 07:06:59;;;;;;;30.20;21.25;;;;;;;16.46;100.00;101135.84;5013418;28;20087;-72
2023/08/28 07:09:25;;;;;;;28.92;21.73;;;;;;;16.67;100.00;101144.84;5018382;28;20803;-73
2023/08/28 07:11:50;;;;;;;27.13;20.65;;;;;;;16.98;100.00;101139.56;5023353;28;20054;-72
2023/08/28 07:14:16;;;;;;;27.30;20.65;;;;;;;17.19;100.00;101131.47;5027179;28;20037;-72
2023/08/28 07:16:42;;;;;;;26.00;19.38;;;;;;;17.49;100.00;101128.78;5030025;28;20029;-72
2023/08/28 07:19:07;;;;;;;23.20;18.13;;;;;;;17.54;100.00;101126.53;5023542;28;25695;-72
2023/08/28 07:21:33;;;;;;;24.20;18.33;;;;;;;17.92;100.00;101137.63;5020982;28;20034;-72
2023/08/28 07:23:58;;;;;;;22.60;16.95;;;;;;;18.22;100.00;101128.59;5025774;28;20076;-73
2023/08/28 07:26:24;;;;;;;19.98;16.60;;;;;;;18.16;100.00;101127.31;5029121;28;20034;-72
2023/08/28 07:28:49;;;;;;;22.35;17.90;;;;;;;18.25;100.00;101115.69;5027031;28;20040;-72
2023/08/28 07:31:15;;;;;;;23.58;18.23;;;;;;;18.26;100.00;101125.50;5054299;27;20050;-72
2023/08/28 07:33:41;;;;;;;22.13;16.90;;;;;;;18.40;100.00;101117.97;5025687;28;20906;-72
2023/08/28 07:36:07;;;;;;;25.92;17.35;;;;;;;18.54;100.00;101114.88;5019805;28;20545;-72
2023/08/28 07:38:32;;;;;;;24.90;17.83;;;;;;;18.67;100.00;101122.66;5027147;28;20087;-72
2023/08/28 07:40:58;;;;;;;26.73;16.25;;;;;;;18.83;100.00;101115.75;5061743;28;20037;-72
2023/08/28 07:43:23;;;;;;;23.50;16.15;;;;;;;18.85;100.00;101108.31;5030139;28;20106;-72
2023/08/28 07:45:49;;;;;;;20.63;14.60;;;;;;;19.00;100.00;101116.84;5023462;28;20042;-72
2023/08/28 07:48:14;;;;;;;22.27;14.05;;;;;;;19.33;100.00;101111.94;5031057;28;20041;-72
2023/08/28 07:50:40;;;;;;;20.17;15.20;;;;;;;19.33;100.00;101107.38;5021380;28;20677;-72
2023/08/28 07:53:06;;;;;;;19.95;14.80;;;;;;;19.30;100.00;101110.38;5021757;28;20918;-72
2023/08/28 07:55:32;;;;;;;15.63;13.90;;;;;;;19.57;100.00;101114.09;5022205;28;20841;-72
2023/08/28 07:57:57;;;;;;;17.65;13.57;;;;;;;19.68;100.00;101111.25;5019376;28;20033;-72
2023/08/28 08:00:23;;;;;;;19.90;14.63;;;;;;;19.78;100.00;101116.59;5019762;28;20262;-73
2023/08/28 08:02:52;;;;;;;16.48;13.98;;;;;;;19.91;100.00;101117.94;5022209;28;20161;-72
2023/08/28 08:05:18;;;;;;;23.10;14.07;;;;;;;20.25;100.00;101119.19;5041903;28;20037;-72
2023/08/28 08:07:44;;;;;;;17.27;12.40;;;;;;;20.47;100.00;101109.78;5028647;28;20535;-72
2023/08/28 08:10:11;;;;;;;15.40;11.32;;;;;;;20.44;100.00;101108.22;5059015;28;20037;-72
2023/08/28 08:12:38;;;;;;;16.30;10.98;;;;;;;20.54;100.00;101114.44;5021237;28;20665;-72
2023/08/28 08:15:06;;;;;;;11.18;9.35;;;;;;;20.42;100.00;101110.19;5026357;28;20037;-72
2023/08/28 08:17:31;;;;;;;14.88;10.23;;;;;;;20.41;100.00;101111.22;5029300;28;20547;-72
2023/08/28 08:19:57;;;;;;;11.27;9.60;;;;;;;20.52;100.00;101112.88;5027830;28;20045;-72
2023/08/28 08:22:22;;;;;;;16.05;10.30;;;;;;;20.52;100.00;101115.56;5030928;28;20033;-72
2023/08/28 08:24:48;;;;;;;13.98;10.93;;;;;;;20.43;100.00;101112.78;5028878;28;20077;-72
2023/08/28 08:27:13;;;;;;;14.40;9.98;;;;;;;20.50;100.00;101118.44;5032252;28;20115;-72
2023/08/28 08:29:39;;;;;;;13.10;10.98;;;;;;;20.54;100.00;101113.59;5027963;28;20113;-72
2023/08/28 08:32:05;;;;;;;11.57;9.13;;;;;;;20.61;100.00;101107.38;5025533;28;20038;-71
2023/08/28 08:34:32;;;;;;;14.18;9.77;;;;;;;20.62;100.00;101106.34;5023226;28;20045;-71
2023/08/28 08:36:58;;;;;;;15.95;8.27;;;;;;;20.59;100.00;101108.53;5030519;28;20037;-72
2023/08/28 08:39:24;;;;;;;11.38;9.32;;;;;;;20.86;100.00;101111.13;5030806;28;20049;-71
2023/08/28 08:41:49;;;;;;;12.30;8.65;;;;;;;20.43;100.00;101109.19;5023612;28;20050;-72
2023/08/28 08:44:15;;;;;;;14.48;7.70;;;;;;;20.14;100.00;101117.56;5061458;28;20048;-72
2023/08/28 08:46:41;;;;;;;12.02;9.32;;;;;;;20.16;100.00;101120.94;5032568;28;20045;-71
2023/08/28 08:49:11;;;;;;;8.38;7.47;;;;;;;20.08;100.00;101124.44;5032952;28;20072;-72
2023/08/28 08:51:42;;;;;;;10.07;8.68;;;;;;;19.83;100.00;101125.13;5024094;28;20088;-72
2023/08/28 08:54:24;;;;;;;13.80;8.55;;;;;;;19.88;100.00;101126.41;5029990;28;20972;-72
2023/08/28 08:56:54;;;;;;;14.63;8.52;;;;;;;20.04;100.00;101128.44;5027723;28;20041;-72
2023/08/28 08:59:24;;;;;;;10.32;7.85;;;;;;;20.21;100.00;101126.75;5026823;28;20113;-71
2023/08/28 09:01:50;;;;;;;11.52;9.15;;;;;;;19.94;100.00;101127.66;5028245;28;20126;-72
2023/08/28 09:04:16;;;;;;;11.02;8.50;;;;;;;20.51;100.00;101135.56;5029757;28;20123;-72
2023/08/28 09:06:42;;;;;;;15.57;8.75;;;;;;;20.68;100.00;101127.44;5029611;28;20042;-72
2023/08/28 09:09:09;;;;;;;7.65;6.35;;;;;;;20.63;100.00;101120.75;5019883;28;20601;-72
2023/08/28 09:11:40;;;;;;;9.45;5.22;;;;;;;20.67;99.87;101136.56;5014047;28;20050;-71
2023/08/28 09:14:06;;;;;;;6.38;4.55;;;;;;;20.55;96.99;101123.41;5026838;28;20072;-72
2023/08/28 09:16:34;;;;;;;8.07;4.90;;;;;;;20.25;97.16;101127.31;5025479;28;20991;-72
2023/08/28 09:19:01;;;;;;;6.00;4.85;;;;;;;20.33;96.13;101121.97;5027449;28;20033;-72
2023/08/28 09:21:39;;;;;;;6.68;4.75;;;;;;;20.29;96.82;101121.44;5025926;28;20034;-72
2023/08/28 09:24:09;;;;;;;8.88;5.35;;;;;;;20.69;97.34;101120.16;5025688;28;20852;-72
2023/08/28 09:26:37;;;;;;;6.88;5.15;;;;;;;21.14;96.40;101108.31;5026992;28;20088;-72
2023/08/28 09:29:04;;;;;;;7.90;6.40;;;;;;;21.62;98.48;101106.88;5024218;28;20072;-72
2023/08/28 09:31:34;;;;;;;7.55;5.57;;;;;;;22.07;91.74;101114.69;5026882;28;20323;-72
2023/08/28 09:34:00;;;;;;;8.60;5.25;;;;;;;22.28;86.64;101103.41;5030338;28;20038;-72
2023/08/28 09:36:27;;;;;;;8.18;5.97;;;;;;;22.79;85.18;101101.38;5033222;28;20029;-72
2023/08/28 09:38:59;;;;;;;6.35;5.70;;;;;;;22.91;80.73;101096.50;5026069;28;20041;-72
2023/08/28 09:41:42;;;;;;;9.85;5.57;;;;;;;22.47;79.83;101103.09;5029597;28;20029;-72
2023/08/28 09:44:08;;;;;;;4.80;4.30;;;;;;;22.76;81.23;101099.03;5033025;28;20468;-72
2023/08/28 09:46:36;;;;;;;6.22;4.70;;;;;;;22.96;79.52;101102.28;5025893;28;20742;-72
2023/08/28 09:49:02;;;;;;;11.50;3.83;;;;;;;23.18;78.42;101107.00;5030621;28;20037;-73
2023/08/28 09:51:59;;;;;;;3.55;3.10;;;;;;;23.05;77.94;101100.41;5025446;28;20181;-72
2023/08/28 09:54:24;;;;;;;8.73;3.85;;;;;;;23.58;74.76;101099.75;5020350;28;20072;-72
2023/08/28 09:56:51;;;;;;;4.13;3.47;;;;;;;23.92;74.08;101104.91;5030950;28;21027;-72
2023/08/28 09:59:16;;;;;;;5.68;3.58;;;;;;;23.97;74.26;101096.19;5031845;28;20045;-71
2023/08/28 10:01:42;;;;;;;7.00;4.00;;;;;;;24.40;71.30;101093.91;5036078;28;20061;-72
2023/08/28 10:04:10;;;;;;;10.10;4.55;;;;;;;24.65;71.54;101100.91;5033143;28;20036;-73
2023/08/28 10:06:46;;;;;;;5.65;2.80;;;;;;;24.38;67.63;101093.25;5029828;28;20026;-72
2023/08/28 10:09:18;;;;;;;4.50;2.95;;;;;;;23.73;66.80;101102.59;5030943;28;20045;-72
2023/08/28 10:11:45;;;;;;;4.45;2.97;;;;;;;23.18;67.04;101100.69;5029668;28;20049;-72
2023/08/28 10:14:12;;;;;;;4.15;3.58;;;;;;;22.45;67.93;101099.69;5032051;28;20041;-72
2023/08/28 10:16:49;;;;;;;4.97;3.92;;;;;;;23.00;71.56;101107.22;5029771;28;20223;-72
2023/08/28 10:19:37;;;;;;;7.45;5.55;;;;;;;22.32;72.38;101103.91;5030763;28;20110;-71
2023/08/28 10:22:09;;;;;;;6.47;5.05;;;;;;;22.71;71.28;101104.13;5044284;28;20030;-72
2023/08/28 10:24:36;;;;;;;;;;;;;;;22.83;72.86;101100.03;5034787;28;20034;-72
2023/08/28 10:27:03;;;;;;;5.35;4.72;;;;;;;22.09;74.45;101106.38;5028038;28;20026;-72
2023/08/28 10:29:30;;;;;;;10.75;5.47;;;;;;;21.67;76.12;101113.53;5030824;28;20095;-72
2023/08/28 10:31:57;;;;;;;7.28;5.22;;;;;;;21.71;78.21;101120.34;5026627;28;20034;-71
2023/08/28 10:34:24;;;;;;;8.20;4.07;;;;;;;21.42;83.49;101106.28;5029371;28;20025;-72
2023/08/28 10:36:51;;;;;;;3.97;3.15;;;;;;;21.57;83.28;101101.09;5020549;28;20061;-72
2023/08/28 10:39:17;;;;;;;10.68;3.90;;;;;;;21.59;79.11;101101.81;5017167;28;20148;-72
2023/08/28 10:41:46;;;;;;;4.70;2.85;;;;;;;22.17;74.35;101109.16;5029569;28;20034;-71
2023/08/28 10:44:13;;;;;;;5.20;2.58;;;;;;;22.52;74.00;101105.31;5032316;28;20037;-72
2023/08/28 10:46:39;;;;;;;2.35;1.80;;;;;;;22.45;68.52;101113.28;5027188;28;20026;-72
2023/08/28 10:49:05;;;;;;;4.28;2.10;;;;;;;22.18;68.49;101102.69;5029524;28;20155;-72
2023/08/28 10:51:32;;;;;;;4.93;1.65;;;;;;;22.05;69.07;101107.75;5031688;28;20186;-72
2023/08/28 10:54:01;;;;;;;3.78;1.83;;;;;;;22.26;67.09;101094.56;5019752;28;20100;-72
2023/08/28 10:56:30;;;;;;;2.65;1.83;;;;;;;22.59;66.56;101095.47;5026158;28;20064;-72
2023/08/28 10:59:17;;;;;;;7.68;3.50;;;;;;;22.72;68.78;101100.38;5022654;28;20061;-73
2023/08/28 11:01:52;;;;;;;5.55;4.13;;;;;;;22.92;68.54;101087.31;5036971;28;20038;-72
2023/08/28 11:04:18;;;;;;;4.57;4.10;;;;;;;23.28;69.48;101087.75;5028370;28;20732;-72
2023/08/28 11:06:45;;;;;;;4.63;2.40;;;;;;;23.42;66.38;101084.31;5034903;28;20036;-72